Time;durP1;ratioP1;P1;durP2;ratioP2;P2;SDS_P1;SDS_P2;PMS_P1;PMS_P2;Temp;Humidity;BMP_temperature;BMP_pressure;BME280_temperature;BME280_humidity;BME280_pressure;Samples;Min_cycle;Max_cycle;Signal;HPM_P1;HPM_P2
2024/01/24 12:21:54;;;;;;;;;;;8.00;99.90;;;;;;2620304;46;20495;-80
2024/01/24 12:24:24;;;;;;;;;;;14.10;99.90;;;;;;2627123;54;20735;-78
2024/01/24 12:26:55;;;;;;;;;;;13.10;99.90;;;;;;2625853;54;20031;-80
2024/01/24 12:29:29;;;;;;;;;;;13.10;99.90;;;;;;2626532;47;19942;-79
2024/01/24 12:32:01;;;;;;;;;;;13.10;99.90;;;;;;2624422;54;19967;-76
2024/01/24 12:34:31;;;;;;;;;;;13.40;99.90;;;;;;2622084;39;20353;-78
2024/01/24 12:37:04;;;;;;;;;;;13.20;99.90;;;;;;2622513;54;19968;-80
2024/01/24 12:39:34;;;;;;;;;;;13.10;99.90;;;;;;2620027;47;19946;-77
2024/01/24 12:42:04;;;;;;;;;;;13.10;99.90;;;;;;2620856;47;19939;-76
2024/01/24 12:44:35;;;;;;;;;;;13.00;99.90;;;;;;2621299;47;19954;-78
2024/01/24 12:47:17;;;;;;;;;;;13.00;99.90;;;;;;2619828;54;19945;-80
2024/01/24 12:49:47;;;;;;;;;;;13.10;99.90;;;;;;2622376;54;19996;-80
2024/01/24 12:52:21;;;;;;;;;;;13.10;99.90;;;;;;2621424;47;19950;-79
2024/01/24 12:54:51;;;;;;;;;;;13.10;99.90;;;;;;2619571;54;19954;-76
2024/01/24 12:57:21;;;;;;;;;;;13.10;99.90;;;;;;2619129;54;19946;-74
2024/01/24 12:59:51;;;;;;;;;;;13.10;99.90;;;;;;2618264;47;20006;-75
2024/01/24 13:02:20;;;;;;;;;;;13.10;99.90;;;;;;2619257;47;19949;-75
2024/01/24 13:04:50;;;;;;;;;;;13.00;99.90;;;;;;2618948;47;19942;-78
2024/01/24 13:07:24;;;;;;;;;;;13.10;99.90;;;;;;2619640;47;19946;-76
2024/01/24 13:09:53;;;;;;;;;;;13.10;99.90;;;;;;2618149;47;21625;-75
2024/01/24 13:12:27;;;;;;;;;;;13.10;99.90;;;;;;2620554;54;19951;-77
2024/01/24 13:14:57;;;;;;;;;;;13.10;99.90;;;;;;2620380;54;20079;-78
2024/01/24 13:17:27;;;;;;;;;;;13.10;99.90;;;;;;2620045;47;19947;-77
2024/01/24 13:19:57;;;;;;;;;;;13.10;99.90;;;;;;2621058;54;19958;-77
2024/01/24 13:22:30;;;;;;;;;;;13.10;99.90;;;;;;2619803;47;19947;-78
2024/01/24 13:25:00;;;;;;;;;;;13.00;99.90;;;;;;2618667;47;19938;-78
2024/01/24 13:27:30;;;;;;;;;;;13.00;99.90;;;;;;2621415;54;20845;-79
2024/01/24 13:30:01;;;;;;;;;;;13.00;99.90;;;;;;2619507;47;20439;-79
2024/01/24 13:32:30;;;;;;;;;;;12.90;99.90;;;;;;2618761;47;19945;-76
2024/01/24 13:35:01;;;;;;;;;;;12.80;99.90;;;;;;2618293;54;19939;-79
2024/01/24 13:37:34;;;;;;;;;;;12.90;99.90;;;;;;2625828;54;19949;-81
2024/01/24 13:40:08;;;;;;;;;;;13.10;99.90;;;;;;2624620;47;19967;-81
2024/01/24 13:42:38;;;;;;;;;;;12.90;99.90;;;;;;2625536;54;19954;-77
2024/01/24 13:45:09;;;;;;;;;;;12.90;99.90;;;;;;2619241;47;19953;-78
2024/01/24 13:47:40;;;;;;;;;;;12.80;99.90;;;;;;2620296;54;19983;-80
2024/01/24 13:50:11;;;;;;;;;;;12.80;99.90;;;;;;2621165;54;19953;-80
2024/01/24 13:52:44;;;;;;;;;;;13.10;99.90;;;;;;2620646;47;19950;-79
2024/01/24 13:55:14;;;;;;;;;;;12.90;99.90;;;;;;2620475;47;19983;-78
2024/01/24 13:57:44;;;;;;;;;;;12.90;99.90;;;;;;2621093;47;19947;-79
2024/01/24 14:00:14;;;;;;;;;;;13.00;99.90;;;;;;2617744;54;19954;-79
2024/01/24 14:02:45;;;;;;;;;;;13.00;99.90;;;;;;2620552;54;19951;-79
2024/01/24 14:10:41;;;;;;;;;;;13.10;99.90;;;;;;2604156;54;19957;-78
2024/01/24 14:13:12;;;;;;;;;;;13.10;99.90;;;;;;2626379;47;19943;-81
2024/01/24 14:15:42;;;;;;;;;;;13.10;99.90;;;;;;2628405;54;19942;-81
2024/01/24 14:18:11;;;;;;;;;;;13.20;99.90;;;;;;2627424;54;19998;-79
2024/01/24 14:20:42;;;;;;;;;;;13.10;99.90;;;;;;2623662;47;20042;-79
2024/01/24 14:23:12;;;;;;;;;;;13.10;99.90;;;;;;2621471;47;19942;-83
2024/01/24 14:25:44;;;;;;;;;;;13.10;99.90;;;;;;2624044;47;19954;-79
2024/01/24 14:28:15;;;;;;;;;;;13.60;99.90;;;;;;2625935;54;19974;-81
2024/01/24 14:30:45;;;;;;;;;;;13.10;99.90;;;;;;2625160;47;19939;-80
2024/01/24 14:33:14;;;;;;;;;;;13.00;99.90;;;;;;2623080;47;19939;-82
2024/01/24 14:35:57;;;;;;;;;;;13.10;99.90;;;;;;2612098;54;19943;-76
2024/01/24 14:38:26;;;;;;;;;;;13.10;99.90;;;;;;2602035;54;20038;-78
2024/01/24 14:40:59;;;;;;;;;;;13.10;99.90;;;;;;2601219;47;20019;-79
2024/01/24 14:43:30;;;;;;;;;;;12.80;99.90;;;;;;2602489;54;19950;-78
2024/01/24 14:46:00;;;;;;;;;;;13.10;99.90;;;;;;2606301;47;19999;-77
2024/01/24 14:48:31;;;;;;;;;;;13.10;99.90;;;;;;2603766;54;19935;-76
2024/01/24 14:51:01;;;;;;;;;;;13.30;99.90;;;;;;2605761;54;20543;-77
2024/01/24 14:53:32;;;;;;;;;;;13.10;99.90;;;;;;2605063;39;20326;-77
2024/01/24 14:56:04;;;;;;;;;;;13.10;99.90;;;;;;2599005;39;20357;-62
2024/01/24 14:58:34;;;;;;;;;;;13.10;99.90;;;;;;2604666;54;20984;-83
2024/01/24 15:01:04;;;;;;;;;;;13.20;99.90;;;;;;2610952;47;21287;-83
2024/01/24 15:03:34;;;;;;;;;;;14.30;99.90;;;;;;2610403;54;19958;-79
2024/01/24 15:06:05;;;;;;;;;;;13.10;99.90;;;;;;2611070;47;19943;-77
2024/01/24 15:08:35;;;;;;;;;;;13.10;99.90;;;;;;2613938;54;20604;-85
2024/01/24 15:11:07;;;;;;;;;;;13.10;99.90;;;;;;2608500;54;21515;-79
2024/01/24 15:13:38;;;;;;;;;;;13.00;99.90;;;;;;2612375;54;19952;-76
2024/01/24 15:16:09;;;;;;;;;;;13.00;99.90;;;;;;2605022;54;19950;-74
2024/01/24 15:18:41;;;;;;;;;;;13.00;99.90;;;;;;2601690;54;20059;-76
2024/01/24 15:21:11;;;;;;;;;;;14.00;99.90;;;;;;2606992;54;19950;-77
2024/01/24 15:23:43;;;;;;;;;;;12.90;99.90;;;;;;2602190;47;19946;-78
2024/01/24 15:26:16;;;;;;;;;;;13.00;99.90;;;;;;2604214;47;19987;-79
2024/01/24 15:28:46;;;;;;;;;;;12.80;99.90;;;;;;2604052;51;19946;-77
2024/01/24 15:31:17;;;;;;;;;;;12.80;99.90;;;;;;2621046;47;20434;-78
2024/01/24 15:33:47;;;;;;;;;;;12.70;99.90;;;;;;2619377;54;19955;-80
2024/01/24 15:36:19;;;;;;;;;;;12.70;99.90;;;;;;2621185;47;20564;-79
2024/01/24 15:38:50;;;;;;;;;;;12.70;99.90;;;;;;2619508;54;19947;-78
2024/01/24 15:41:23;;;;;;;;;;;12.60;99.90;;;;;;2619086;46;19977;-77
2024/01/24 15:43:53;;;;;;;;;;;12.60;99.90;;;;;;2618700;47;19946;-77
2024/01/24 15:46:24;;;;;;;;;;;12.60;99.90;;;;;;2618905;47;20480;-78
2024/01/24 15:48:55;;;;;;;;;;;12.50;99.90;;;;;;2618794;47;19946;-79
2024/01/24 15:51:26;;;;;;;;;;;12.50;99.90;;;;;;2618537;47;19946;-81
2024/01/24 15:53:56;;;;;;;;;;;12.40;99.90;;;;;;2617901;54;21465;-78
2024/01/24 15:56:28;;;;;;;;;;;12.40;99.90;;;;;;2618347;47;19934;-79
2024/01/24 15:58:59;;;;;;;;;;;12.30;99.90;;;;;;2623187;47;19953;-77
2024/01/24 16:01:29;;;;;;;;;;;12.20;99.90;;;;;;2620458;47;20453;-79
2024/01/24 16:03:59;;;;;;;;;;;12.20;99.90;;;;;;2618550;47;19958;-80
2024/01/24 16:06:30;;;;;;;;;;;12.20;99.90;;;;;;2620427;54;19942;-78
2024/01/24 16:08:59;;;;;;;;;;;12.10;99.90;;;;;;2621944;54;19935;-79
2024/01/24 16:11:31;;;;;;;;;;;12.10;99.90;;;;;;2621980;47;19943;-78
2024/01/24 16:14:01;;;;;;;;;;;12.00;99.90;;;;;;2620418;50;19938;-77
2024/01/24 16:16:31;;;;;;;;;;;12.00;99.90;;;;;;2621957;54;20060;-80
2024/01/24 16:19:01;;;;;;;;;;;12.00;99.90;;;;;;2622156;47;19947;-80
2024/01/24 16:21:31;;;;;;;;;;;11.90;99.90;;;;;;2624167;39;20016;-80
2024/01/24 16:24:01;;;;;;;;;;;11.90;99.90;;;;;;2621460;47;19946;-81
2024/01/24 16:26:33;;;;;;;;;;;11.90;99.90;;;;;;2617315;47;19946;-80
2024/01/24 16:29:03;;;;;;;;;;;11.90;99.90;;;;;;2624141;47;19953;-79
2024/01/24 16:31:33;;;;;;;;;;;12.20;99.90;;;;;;2625461;47;20521;-80
2024/01/24 16:34:03;;;;;;;;;;;11.80;99.90;;;;;;2626672;47;19950;-80
2024/01/24 16:36:34;;;;;;;;;;;11.80;99.90;;;;;;2626952;47;19961;-80
2024/01/24 16:39:04;;;;;;;;;;;11.70;99.90;;;;;;2622951;47;19946;-79
2024/01/24 16:41:36;;;;;;;;;;;11.60;99.90;;;;;;2616723;47;19961;-81
2024/01/24 16:44:06;;;;;;;;;;;11.60;99.90;;;;;;2619621;47;19965;-80
2024/01/24 16:46:36;;;;;;;;;;;11.60;99.90;;;;;;2626013;54;20312;-81
2024/01/24 16:49:06;;;;;;;;;;;11.60;99.90;;;;;;2626794;47;19990;-81
2024/01/24 16:51:35;;;;;;;;;;;11.60;99.90;;;;;;2628091;54;19939;-80
2024/01/24 16:54:05;;;;;;;;;;;11.60;99.90;;;;;;2627406;47;19946;-83
2024/01/24 16:56:38;;;;;;;;;;;11.60;99.90;;;;;;2625953;47;19947;-79
2024/01/24 16:59:07;;;;;;;;;;;11.60;99.90;;;;;;2620702;47;19947;-78
2024/01/24 17:01:37;;;;;;;;;;;11.50;99.90;;;;;;2620103;54;19959;-76
2024/01/24 17:04:07;;;;;;;;;;;11.50;99.90;;;;;;2616385;54;20026;-77
2024/01/24 17:06:37;;;;;;;;;;;11.50;99.90;;;;;;2619127;54;20492;-77
2024/01/24 17:09:09;;;;;;;;;;;11.50;99.90;;;;;;2616728;47;19952;-77
2024/01/24 17:11:42;;;;;;;;;;;11.50;99.90;;;;;;2618942;47;20021;-76
2024/01/24 17:14:11;;;;;;;;;;;11.60;99.90;;;;;;2617686;54;19946;-77
2024/01/24 17:16:39;;;;;;;;;;;11.50;99.90;;;;;;2618361;47;19962;-76
2024/01/24 17:19:08;;;;;;;;;;;11.50;99.90;;;;;;2617613;47;19954;-77
2024/01/24 17:21:38;;;;;;;;;;;11.50;99.90;;;;;;2616482;54;19991;-79
2024/01/24 17:24:08;;;;;;;;;;;11.50;99.90;;;;;;2616757;47;19939;-76
2024/01/24 17:26:43;;;;;;;;;;;11.40;99.90;;;;;;2610203;51;20021;-76
2024/01/24 17:29:13;;;;;;;;;;;11.40;99.90;;;;;;2611002;47;19973;-79
2024/01/24 17:31:45;;;;;;;;;;;11.40;99.90;;;;;;2610991;47;21131;-80
2024/01/24 17:34:15;;;;;;;;;;;11.30;99.90;;;;;;2612560;39;20692;-80
2024/01/24 17:36:45;;;;;;;;;;;11.30;99.90;;;;;;2608674;47;19954;-78
2024/01/24 17:39:15;;;;;;;;;;;11.70;99.90;;;;;;2606147;47;19939;-78
2024/01/24 17:41:47;;;;;;;;;;;11.30;99.90;;;;;;2610940;47;19942;-77
2024/01/24 17:44:20;;;;;;;;;;;11.30;99.90;;;;;;2611143;54;20023;-81
2024/01/24 17:46:50;;;;;;;;;;;11.50;99.90;;;;;;2611544;47;19950;-80
2024/01/24 17:49:20;;;;;;;;;;;11.30;99.90;;;;;;2608461;46;19999;-80
2024/01/24 17:51:50;;;;;;;;;;;11.20;99.90;;;;;;2611250;47;19944;-82
2024/01/24 17:54:20;;;;;;;;;;;11.10;99.90;;;;;;2610805;54;19986;-79
2024/01/24 17:56:52;;;;;;;;;;;13.20;99.90;;;;;;2611778;47;20693;-80
2024/01/24 17:59:22;;;;;;;;;;;11.10;99.90;;;;;;2612263;54;19949;-80
2024/01/24 18:01:53;;;;;;;;;;;11.10;99.90;;;;;;2610780;47;19923;-78
2024/01/24 18:04:22;;;;;;;;;;;11.10;99.90;;;;;;2610488;47;19922;-79
2024/01/24 18:06:52;;;;;;;;;;;11.10;99.90;;;;;;2610376;54;19947;-78
2024/01/24 18:09:24;;;;;;;;;;;11.10;99.90;;;;;;2602960;47;19999;-79
2024/01/24 18:11:56;;;;;;;;;;;11.00;99.90;;;;;;2599725;54;20010;-79
2024/01/24 18:14:26;;;;;;;;;;;11.40;99.90;;;;;;2599676;54;19953;-79
2024/01/24 18:16:56;;;;;;;;;;;11.00;99.90;;;;;;2600287;54;19981;-80
2024/01/24 18:19:27;;;;;;;;;;;10.90;99.90;;;;;;2597811;47;20504;-78
2024/01/24 18:21:57;;;;;;;;;;;11.40;99.90;;;;;;2597853;54;19958;-78
2024/01/24 18:24:27;;;;;;;;;;;11.00;99.90;;;;;;2598179;54;19977;-77
2024/01/24 18:26:59;;;;;;;;;;;10.90;99.90;;;;;;2600950;39;20371;-77
2024/01/24 18:29:29;;;;;;;;;;;11.40;99.90;;;;;;2598640;54;21563;-77
2024/01/24 18:31:59;;;;;;;;;;;11.80;99.90;;;;;;2598085;54;19961;-79
2024/01/24 18:34:34;;;;;;;;;;;11.20;99.90;;;;;;2599064;47;20002;-78
2024/01/24 18:37:07;;;;;;;;;;;10.80;99.90;;;;;;2597927;47;19978;-79
2024/01/24 18:39:37;;;;;;;;;;;10.80;99.90;;;;;;2599133;54;19986;-79
2024/01/24 18:42:10;;;;;;;;;;;10.90;99.90;;;;;;2598638;54;19963;-78
2024/01/24 18:44:40;;;;;;;;;;;10.80;99.90;;;;;;2601062;47;21181;-80
2024/01/24 18:47:10;;;;;;;;;;;10.80;99.90;;;;;;2601564;47;19939;-79
2024/01/24 18:49:42;;;;;;;;;;;10.80;99.90;;;;;;2601171;54;20274;-77
2024/01/24 18:52:13;;;;;;;;;;;10.80;99.90;;;;;;2598409;47;19978;-77
2024/01/24 18:54:46;;;;;;;;;;;10.80;99.90;;;;;;2596831;47;19951;-78
2024/01/24 23:40:21;;;;;;;;;;;9.50;99.90;;;;;;2609970;54;19967;-82
2024/01/24 23:42:51;;;;;;;;;;;9.40;99.90;;;;;;2629872;47;19991;-82
2024/01/24 23:45:22;;;;;;;;;;;9.40;99.90;;;;;;2629926;46;19949;-82
2024/01/24 23:47:53;;;;;;;;;;;9.30;99.90;;;;;;2629835;47;19969;-82
2024/01/24 23:50:24;;;;;;;;;;;9.20;99.90;;;;;;2629820;47;20635;-82
2024/01/24 23:52:56;;;;;;;;;;;9.20;99.90;;;;;;2629581;47;19949;-83
2024/01/24 23:55:30;;;;;;;;;;;9.20;99.90;;;;;;2629709;46;19965;-82
2024/01/24 23:58:00;;;;;;;;;;;9.10;99.90;;;;;;2629665;47;21003;-81
